createdAt,value
2022-12-03T00:01:17.490Z,7.95
2022-12-03T00:03:48.093Z,8.26
2022-12-03T00:06:17.571Z,8.50
2022-12-03T00:08:46.303Z,8.25
2022-12-03T00:11:24.213Z,7.90
2022-12-03T00:13:54.286Z,7.96
2022-12-03T00:16:22.993Z,8.11
2022-12-03T00:18:52.808Z,7.71
2022-12-03T00:21:29.125Z,7.78
2022-12-03T00:23:59.843Z,8.08
2022-12-03T00:26:28.757Z,8.22
2022-12-03T00:29:00.744Z,8.10
2022-12-03T00:31:46.618Z,8.31
2022-12-03T00:34:15.182Z,8.37
2022-12-03T00:36:43.653Z,8.38
2022-12-03T00:39:25.509Z,8.19
2022-12-03T00:42:04.157Z,8.27
2022-12-03T00:44:41.229Z,8.07
2022-12-03T00:47:09.983Z,8.03
2022-12-03T00:49:38.660Z,7.95
2022-12-03T00:52:07.274Z,7.82
2022-12-03T00:54:35.973Z,7.74
2022-12-03T00:57:11.686Z,7.73
2022-12-03T00:59:42.735Z,8.04
2022-12-03T01:02:11.315Z,8.10
2022-12-03T01:04:39.919Z,7.79
2022-12-03T01:07:09.010Z,7.98
2022-12-03T01:09:37.570Z,7.56
2022-12-03T01:12:06.465Z,8.19
2022-12-03T01:14:35.060Z,8.04
2022-12-03T01:17:07.106Z,7.97
2022-12-03T01:19:36.344Z,7.84
2022-12-03T01:22:08.011Z,7.97
2022-12-03T01:24:42.679Z,8.01
2022-12-03T01:27:10.923Z,7.85
2022-12-03T01:29:39.266Z,7.66
2022-12-03T01:32:16.965Z,7.53
2022-12-03T01:34:50.835Z,7.97
2022-12-03T01:37:22.617Z,8.27
2022-12-03T01:39:53.822Z,8.16
2022-12-03T01:42:27.510Z,8.17
2022-12-03T01:44:59.860Z,8.25
2022-12-03T01:47:39.180Z,8.22
2022-12-03T01:50:14.062Z,7.99
2022-12-03T01:52:43.584Z,8.08
2022-12-03T01:55:17.912Z,7.91
2022-12-03T01:57:49.130Z,8.07
2022-12-03T02:00:20.304Z,7.20
2022-12-03T02:02:55.527Z,7.47
2022-12-03T02:05:27.263Z,7.93
2022-12-03T02:07:56.537Z,7.63
2022-12-03T02:10:39.366Z,7.81
2022-12-03T02:13:10.332Z,7.73
2022-12-03T02:15:45.715Z,7.41
2022-12-03T02:18:15.470Z,7.21
2022-12-03T02:20:54.600Z,7.60
2022-12-03T02:23:33.990Z,7.36
2022-12-03T02:26:23.363Z,7.62
2022-12-03T02:28:51.787Z,7.39
2022-12-03T02:31:20.235Z,7.54
2022-12-03T02:33:48.531Z,7.62
2022-12-03T02:36:17.334Z,7.34
2022-12-03T02:38:47.387Z,7.62
2022-12-03T02:41:34.194Z,7.64
2022-12-03T02:44:04.693Z,7.49
2022-12-03T02:46:33.264Z,7.29
2022-12-03T02:49:02.345Z,6.94
2022-12-03T02:51:30.780Z,7.37
2022-12-03T02:53:59.577Z,7.16
2022-12-03T02:56:35.195Z,7.40
2022-12-03T02:59:06.695Z,7.16
2022-12-03T03:01:36.181Z,7.44
2022-12-03T03:04:15.659Z,7.41
2022-12-03T03:06:43.966Z,6.75
2022-12-03T03:09:12.269Z,6.80
2022-12-03T03:11:42.658Z,7.16
2022-12-03T03:14:12.325Z,6.59
2022-12-03T03:16:40.785Z,6.66
2022-12-03T03:19:09.460Z,6.30
2022-12-03T03:21:37.675Z,6.85
2022-12-03T03:24:07.314Z,6.97
2022-12-03T03:26:35.554Z,7.30
2022-12-03T03:29:13.006Z,7.96
2022-12-03T03:31:42.378Z,8.01
2022-12-03T03:34:19.933Z,7.57
2022-12-03T03:36:48.478Z,7.55
2022-12-03T03:39:16.726Z,7.99
2022-12-03T03:41:46.958Z,8.45
2022-12-03T03:44:16.612Z,8.47
2022-12-03T03:46:45.891Z,8.39
2022-12-03T03:49:14.489Z,8.25
2022-12-03T03:51:42.890Z,8.20
2022-12-03T03:54:20.239Z,8.53
2022-12-03T03:56:48.570Z,8.92
2022-12-03T03:59:24.389Z,9.06
2022-12-03T04:01:53.145Z,9.19
2022-12-03T04:04:24.302Z,9.18
2022-12-03T04:06:52.578Z,9.08
2022-12-03T04:09:27.758Z,9.29
2022-12-03T04:12:13.666Z,9.22
2022-12-03T04:14:43.255Z,9.33
2022-12-03T04:17:11.419Z,9.06
2022-12-03T04:19:42.807Z,9.14
2022-12-03T04:22:28.649Z,9.30
2022-12-03T04:25:17.182Z,9.41
2022-12-03T04:28:14.779Z,9.22
2022-12-03T04:30:44.682Z,9.02
2022-12-03T04:33:30.559Z,8.97
2022-12-03T04:35:59.124Z,9.20
2022-12-03T04:38:45.445Z,9.30
2022-12-03T04:41:13.635Z,9.68
2022-12-03T04:43:55.713Z,9.08
2022-12-03T04:46:25.406Z,9.06
2022-12-03T04:48:53.635Z,9.14
2022-12-03T04:51:21.878Z,8.97
2022-12-03T04:53:50.065Z,8.60
2022-12-03T04:56:18.323Z,8.57
2022-12-03T04:59:00.806Z,8.62
2022-12-03T05:01:30.593Z,8.32
2022-12-03T05:04:10.429Z,8.34
2022-12-03T05:06:38.707Z,8.94
2022-12-03T05:09:07.246Z,8.94
2022-12-03T05:11:35.775Z,8.96
2022-12-03T05:14:04.050Z,9.44
2022-12-03T05:16:34.392Z,9.67
2022-12-03T05:19:02.847Z,9.57
2022-12-03T05:21:31.157Z,9.56
2022-12-03T05:23:59.577Z,10.07
2022-12-03T05:26:27.986Z,9.94
2022-12-03T05:28:56.346Z,10.00
2022-12-03T05:31:40.238Z,10.19
2022-12-03T05:34:08.432Z,10.08
2022-12-03T05:36:36.696Z,10.31
2022-12-03T05:39:14.734Z,10.37
2022-12-03T05:42:00.298Z,10.27
2022-12-03T05:44:28.744Z,10.34
2022-12-03T05:46:58.363Z,10.41
2022-12-03T05:49:26.554Z,10.24
2022-12-03T05:51:58.438Z,10.39
2022-12-03T05:54:27.182Z,10.49
2022-12-03T05:56:59.332Z,10.24
2022-12-03T05:59:27.562Z,9.62
2022-12-03T06:01:57.285Z,9.32
2022-12-03T06:04:28.462Z,9.78
2022-12-03T06:07:07.433Z,9.68
2022-12-03T06:09:49.059Z,9.63
2022-12-03T06:12:17.292Z,9.62
2022-12-03T06:14:45.515Z,9.73
2022-12-03T06:17:15.114Z,9.99
2022-12-03T06:19:43.305Z,9.27
2022-12-03T06:22:11.502Z,9.14
2022-12-03T06:24:39.764Z,9.18
2022-12-03T06:27:08.071Z,9.46
2022-12-03T06:29:36.490Z,9.63
2022-12-03T06:32:04.890Z,9.26
2022-12-03T06:34:44.404Z,9.52
2022-12-03T06:37:14.655Z,10.00
2022-12-03T06:39:44.466Z,10.34
2022-12-03T06:42:12.720Z,9.39
2022-12-03T06:44:41.210Z,9.53
2022-12-03T06:47:09.441Z,9.50
2022-12-03T06:49:50.301Z,9.38
2022-12-03T06:52:18.467Z,9.93
2022-12-03T06:54:46.770Z,9.32
2022-12-03T06:57:15.168Z,9.75
2022-12-03T06:59:43.382Z,9.74
2022-12-03T07:02:12.323Z,9.47
2022-12-03T07:04:44.826Z,9.58
2022-12-03T07:07:16.046Z,9.47
2022-12-03T07:09:44.384Z,9.27
2022-12-03T07:12:12.549Z,9.64
2022-12-03T07:14:40.739Z,9.88
2022-12-03T07:17:08.947Z,9.83
2022-12-03T07:19:42.008Z,9.98
2022-12-03T07:22:12.377Z,9.87
2022-12-03T07:24:43.010Z,9.57
2022-12-03T07:27:11.282Z,9.61
2022-12-03T07:29:41.531Z,9.89
2022-12-03T07:32:09.787Z,10.57
2022-12-03T07:34:38.187Z,10.32
2022-12-03T07:37:06.395Z,9.78
2022-12-03T07:39:54.503Z,10.34
2022-12-03T07:42:22.870Z,9.91
2022-12-03T07:44:51.556Z,9.33
2022-12-03T07:47:20.004Z,9.93
2022-12-03T07:49:48.266Z,9.97
2022-12-03T07:52:27.324Z,10.13
2022-12-03T07:54:57.975Z,10.75
2022-12-03T07:57:26.273Z,10.59
2022-12-03T07:59:54.602Z,10.56
2022-12-03T08:02:23.253Z,10.26
2022-12-03T08:04:59.882Z,9.31
2022-12-03T08:07:29.287Z,9.53
2022-12-03T08:10:00.741Z,9.83
2022-12-03T08:12:41.170Z,9.37
2022-12-03T08:15:20.359Z,9.04
2022-12-03T08:18:01.318Z,10.13
2022-12-03T08:20:34.222Z,9.79
2022-12-03T08:23:12.015Z,9.26
2022-12-03T08:25:46.852Z,9.75
2022-12-03T08:28:20.362Z,10.36
2022-12-03T08:31:18.523Z,9.79
2022-12-03T08:33:51.189Z,9.07
2022-12-03T08:36:31.473Z,9.25
2022-12-03T08:39:14.073Z,9.86
2022-12-03T08:42:01.478Z,10.04
2022-12-03T08:44:35.373Z,9.95
2022-12-03T08:47:14.974Z,10.16
2022-12-03T08:49:47.267Z,9.70
2022-12-03T08:52:22.178Z,10.08
2022-12-03T08:54:57.732Z,10.33
2022-12-03T08:57:31.922Z,9.47
2022-12-03T09:00:07.834Z,9.47
2022-12-03T09:02:36.314Z,10.23
2022-12-03T09:05:18.262Z,9.53
2022-12-03T09:07:46.485Z,10.09
2022-12-03T09:10:14.722Z,10.27
2022-12-03T09:12:44.380Z,9.93
2022-12-03T09:15:13.073Z,10.37
2022-12-03T09:17:41.294Z,10.69
2022-12-03T09:20:10.629Z,10.90
2022-12-03T09:22:38.853Z,10.39
2022-12-03T09:25:08.409Z,10.83
2022-12-03T09:27:36.740Z,10.61
2022-12-03T09:30:08.066Z,10.95
2022-12-03T09:32:40.623Z,11.07
2022-12-03T09:35:10.710Z,10.94
2022-12-03T09:37:38.910Z,11.02
2022-12-03T09:40:09.119Z,10.24
2022-12-03T09:42:37.888Z,10.49
2022-12-03T09:45:12.827Z,9.99
2022-12-03T09:47:44.963Z,10.57
2022-12-03T09:50:15.744Z,10.82
2022-12-03T09:52:45.163Z,11.02
2022-12-03T09:55:18.467Z,11.09
2022-12-03T09:57:46.852Z,10.97
2022-12-03T10:00:20.793Z,11.19
2022-12-03T10:02:50.995Z,10.79
2022-12-03T10:05:21.479Z,11.29
2022-12-03T10:07:51.086Z,10.61
2022-12-03T10:10:22.667Z,11.38
2022-12-03T10:12:52.486Z,11.48
2022-12-03T10:15:24.482Z,10.98
2022-12-03T10:17:55.952Z,10.47
2022-12-03T10:20:26.423Z,10.46
2022-12-03T10:22:54.828Z,10.78
2022-12-03T10:25:24.774Z,11.30
2022-12-03T10:28:01.559Z,11.07
2022-12-03T10:30:31.542Z,11.37
2022-12-03T10:33:02.642Z,11.49
2022-12-03T10:35:41.075Z,12.06
2022-12-03T10:38:22.198Z,11.46
2022-12-03T10:40:50.939Z,11.48
2022-12-03T10:43:24.872Z,12.01
2022-12-03T10:46:15.670Z,11.09
2022-12-03T10:48:43.993Z,10.26
2022-12-03T10:51:20.844Z,10.34
2022-12-03T10:53:50.981Z,10.94
2022-12-03T10:56:26.401Z,10.36
2022-12-03T10:58:55.257Z,10.77
2022-12-03T11:01:27.042Z,10.62
2022-12-03T11:04:06.068Z,10.88
2022-12-03T11:06:41.730Z,10.74
2022-12-03T11:09:20.619Z,10.88
2022-12-03T11:11:49.653Z,10.31
2022-12-03T11:15:07.126Z,10.97
2022-12-03T11:17:53.862Z,10.78
2022-12-03T11:21:11.244Z,11.07
2022-12-03T11:24:27.053Z,10.91
2022-12-03T11:27:21.742Z,10.85
2022-12-03T11:30:00.988Z,10.65
2022-12-03T11:33:23.574Z,10.27
2022-12-03T11:36:16.652Z,10.56
2022-12-03T11:38:53.293Z,10.98
2022-12-03T11:41:26.325Z,11.16
2022-12-03T11:44:32.975Z,11.18
2022-12-03T11:47:14.059Z,10.91
2022-12-03T11:49:50.774Z,11.21
2022-12-03T11:52:29.921Z,11.04
2022-12-03T11:55:05.596Z,12.19
2022-12-03T11:57:38.685Z,11.65
2022-12-03T12:00:18.540Z,11.78
2022-12-03T12:02:48.118Z,11.80
2022-12-03T12:05:25.663Z,11.40
2022-12-03T12:07:54.774Z,10.90
2022-12-03T12:10:45.905Z,10.98
2022-12-03T12:13:52.007Z,11.23
2022-12-03T12:16:51.269Z,11.73
2022-12-03T12:19:41.424Z,12.20
2022-12-03T12:22:32.921Z,12.13
2022-12-03T12:25:02.780Z,11.79
2022-12-03T12:27:45.529Z,11.97
2022-12-03T12:30:16.924Z,11.49
2022-12-03T12:32:47.856Z,12.28
2022-12-03T12:35:19.821Z,12.85
2022-12-03T12:37:59.042Z,12.42
2022-12-03T12:40:32.045Z,12.07
2022-12-03T12:43:08.478Z,11.83
2022-12-03T12:45:43.349Z,11.07
2022-12-03T12:48:26.175Z,11.44
2022-12-03T12:51:01.674Z,11.62
2022-12-03T12:53:37.716Z,11.49
2022-12-03T12:56:30.051Z,12.06
2022-12-03T12:59:00.381Z,11.74
2022-12-03T13:01:32.441Z,11.77
2022-12-03T13:04:02.230Z,12.23
2022-12-03T13:06:33.392Z,11.63
2022-12-03T13:09:14.911Z,12.15
2022-12-03T13:11:46.473Z,11.96
2022-12-03T13:14:20.594Z,11.89
2022-12-03T13:16:50.720Z,11.98
2022-12-03T13:19:24.813Z,12.24
2022-12-03T13:21:55.379Z,11.47
2022-12-03T13:24:33.657Z,12.72
2022-12-03T13:27:08.963Z,11.99
2022-12-03T13:29:37.247Z,11.64
2022-12-03T13:32:16.140Z,11.31
2022-12-03T13:34:45.326Z,11.61
2022-12-03T13:37:17.441Z,11.31
2022-12-03T13:39:49.620Z,12.30
2022-12-03T13:42:42.199Z,12.05
2022-12-03T13:45:33.374Z,11.03
2022-12-03T13:48:05.043Z,11.03
2022-12-03T13:50:37.685Z,11.52
2022-12-03T13:53:22.060Z,10.93
2022-12-03T13:55:55.259Z,10.56
2022-12-03T13:58:23.594Z,10.54
2022-12-03T14:00:51.904Z,10.51
2022-12-03T14:03:20.192Z,11.17
2022-12-03T14:05:48.415Z,11.53
2022-12-03T14:08:16.674Z,11.54
2022-12-03T14:10:45.113Z,10.85
2022-12-03T14:13:14.820Z,11.31
2022-12-03T14:15:44.030Z,11.21
2022-12-03T14:18:12.209Z,11.36
2022-12-03T14:20:40.404Z,11.10
2022-12-03T14:23:08.572Z,11.16
2022-12-03T14:25:36.950Z,11.55
2022-12-03T14:28:08.542Z,10.86
2022-12-03T14:30:38.302Z,10.55
2022-12-03T14:33:06.626Z,10.69
2022-12-03T14:35:34.855Z,10.16
2022-12-03T14:38:03.101Z,10.61
2022-12-03T14:40:31.255Z,10.81
2022-12-03T14:42:59.468Z,10.43
2022-12-03T14:45:28.754Z,11.00
2022-12-03T14:47:58.372Z,11.40
2022-12-03T14:50:28.707Z,10.77
2022-12-03T14:53:01.030Z,11.11
2022-12-03T14:55:31.262Z,10.37
2022-12-03T14:57:59.681Z,10.79
2022-12-03T15:00:27.851Z,11.02
2022-12-03T15:03:03.422Z,10.10
2022-12-03T15:05:31.635Z,10.25
2022-12-03T15:08:09.523Z,10.71
2022-12-03T15:10:48.366Z,11.29
2022-12-03T15:13:17.591Z,11.16
2022-12-03T15:15:46.169Z,10.38
2022-12-03T15:18:22.342Z,10.46
2022-12-03T15:20:53.635Z,10.84
2022-12-03T15:23:22.142Z,10.55
2022-12-03T15:25:51.752Z,10.79
2022-12-03T15:28:29.737Z,10.39
2022-12-03T15:30:58.030Z,10.61
2022-12-03T15:33:27.794Z,10.35
2022-12-03T15:35:56.122Z,10.43
2022-12-03T15:38:24.360Z,9.98
2022-12-03T15:44:18.879Z,10.55
2022-12-03T15:46:47.272Z,9.41
2022-12-03T15:49:15.707Z,10.56
2022-12-03T15:51:44.287Z,10.32
2022-12-03T15:54:13.518Z,10.65
2022-12-03T15:56:41.872Z,9.75
2022-12-03T15:59:10.219Z,9.76
2022-12-03T16:01:39.934Z,9.28
2022-12-03T16:04:08.259Z,9.49
2022-12-03T16:06:36.541Z,9.64
2022-12-03T16:09:05.017Z,9.72
2022-12-03T16:11:33.281Z,9.74
2022-12-03T16:14:01.816Z,9.29
2022-12-03T16:16:30.120Z,10.02
2022-12-03T16:18:59.853Z,9.09
2022-12-03T16:21:28.258Z,9.18
2022-12-03T16:23:57.010Z,9.59
2022-12-03T16:26:25.362Z,9.69
2022-12-03T16:28:54.039Z,9.41
2022-12-03T16:31:22.372Z,9.62
2022-12-03T16:33:50.991Z,9.22
2022-12-03T16:36:20.746Z,9.95
2022-12-03T16:38:48.990Z,9.99
2022-12-03T16:41:17.341Z,9.32
2022-12-03T16:43:48.456Z,9.53
2022-12-03T16:46:26.200Z,9.95
2022-12-03T16:48:56.461Z,10.45
2022-12-03T16:51:27.579Z,10.17
2022-12-03T16:53:56.139Z,10.12
2022-12-03T16:56:24.506Z,10.68
2022-12-03T16:58:52.818Z,10.01
2022-12-03T17:01:21.189Z,9.80
2022-12-03T17:03:49.539Z,9.99
2022-12-03T17:06:18.004Z,10.32
2022-12-03T17:08:49.855Z,10.15
2022-12-03T17:11:19.015Z,9.95
2022-12-03T17:13:47.650Z,9.88
2022-12-03T17:16:16.047Z,10.28
2022-12-03T17:18:45.412Z,10.60
2022-12-03T17:21:13.786Z,10.54
2022-12-03T17:23:45.382Z,10.63
2022-12-03T17:26:15.158Z,11.04
2022-12-03T17:28:43.497Z,10.14
2022-12-03T17:31:12.512Z,10.39
2022-12-03T17:33:43.079Z,11.36
2022-12-03T17:36:12.044Z,11.62
2022-12-03T17:38:40.535Z,11.07
2022-12-03T17:41:09.122Z,10.53
2022-12-03T17:43:38.869Z,10.27
2022-12-03T17:46:07.655Z,10.65
2022-12-03T17:48:36.370Z,10.33
2022-12-03T17:51:05.015Z,10.42
2022-12-03T17:53:33.326Z,10.66
2022-12-03T17:56:01.589Z,10.71
2022-12-03T17:58:29.999Z,10.61
2022-12-03T18:01:02.791Z,10.18
2022-12-03T18:03:31.867Z,9.64
2022-12-03T18:06:00.253Z,10.26
2022-12-03T18:08:29.915Z,10.18
2022-12-03T18:10:58.415Z,10.27
2022-12-03T18:13:27.098Z,9.35
2022-12-03T18:15:55.615Z,9.47
2022-12-03T18:18:25.307Z,10.17
2022-12-03T18:20:54.435Z,10.98
2022-12-03T18:23:22.799Z,10.65
2022-12-03T18:25:51.158Z,10.16
2022-12-03T18:28:19.977Z,9.64
2022-12-03T18:30:52.426Z,10.22
2022-12-03T18:33:23.312Z,10.64
2022-12-03T18:35:56.729Z,9.86
2022-12-03T18:38:29.081Z,9.87
2022-12-03T18:40:58.329Z,10.81
2022-12-03T18:43:29.035Z,9.82
2022-12-03T18:45:57.812Z,9.53
2022-12-03T18:48:26.608Z,10.51
2022-12-03T18:50:56.510Z,10.30
2022-12-03T18:53:24.868Z,10.22
2022-12-03T18:55:53.221Z,10.83
2022-12-03T18:58:21.572Z,10.23
2022-12-03T19:00:50.402Z,10.43
2022-12-03T19:03:18.894Z,10.17
2022-12-03T19:05:47.342Z,9.16
2022-12-03T19:08:19.104Z,9.96
2022-12-03T19:10:56.716Z,9.88
2022-12-03T19:13:27.147Z,10.19
2022-12-03T19:15:56.270Z,10.15
2022-12-03T19:18:25.565Z,9.67
2022-12-03T19:20:54.310Z,10.06
2022-12-03T19:23:24.087Z,9.68
2022-12-03T19:26:00.608Z,10.09
2022-12-03T19:28:30.164Z,10.64
2022-12-03T19:31:00.429Z,10.51
2022-12-03T19:33:29.720Z,10.15
2022-12-03T19:35:59.577Z,9.84
2022-12-03T19:38:31.941Z,9.73
2022-12-03T19:41:02.290Z,10.25
2022-12-03T19:43:31.834Z,9.87
2022-12-03T19:46:05.200Z,9.85
2022-12-03T19:48:34.801Z,9.53
2022-12-03T19:51:32.519Z,9.63
2022-12-03T19:53:55.045Z,9.84
2022-12-03T19:56:23.977Z,9.82
2022-12-03T19:58:56.028Z,10.61
2022-12-03T20:01:26.887Z,9.47
2022-12-03T20:03:57.469Z,10.74
2022-12-03T20:06:29.462Z,10.77
2022-12-03T20:09:01.231Z,9.00
2022-12-03T20:11:32.561Z,10.55
2022-12-03T20:14:04.508Z,10.04
2022-12-03T20:16:33.117Z,9.35
2022-12-03T20:19:04.752Z,9.35
2022-12-03T20:21:36.276Z,10.32
2022-12-03T20:24:07.788Z,10.19
2022-12-03T20:26:36.484Z,9.36
2022-12-03T20:29:04.862Z,10.35
2022-12-03T20:31:33.639Z,10.49
2022-12-03T20:34:04.460Z,10.76
2022-12-03T20:36:33.934Z,10.60
2022-12-03T20:39:06.128Z,10.54
2022-12-03T20:41:36.956Z,11.01
2022-12-03T20:44:07.536Z,10.92
2022-12-03T20:46:36.304Z,10.76
2022-12-03T20:49:05.122Z,10.67
2022-12-03T20:51:33.715Z,11.03
2022-12-03T20:54:02.841Z,10.16
2022-12-03T20:56:35.715Z,10.00
2022-12-03T20:59:06.919Z,10.07
2022-12-03T21:01:36.525Z,10.69
2022-12-03T21:04:05.865Z,10.36
2022-12-03T21:06:36.965Z,10.64
2022-12-03T21:09:07.939Z,10.84
2022-12-03T21:11:41.516Z,10.27
2022-12-03T21:14:11.046Z,9.44
2022-12-03T21:19:30.886Z,10.82
2022-12-03T21:21:59.269Z,10.37
2022-12-03T21:24:27.742Z,10.20
2022-12-03T21:26:57.852Z,10.54
2022-12-03T21:29:26.760Z,10.56
2022-12-03T21:31:55.405Z,9.44
2022-12-03T21:34:23.696Z,9.27
2022-12-03T21:36:52.242Z,10.40
2022-12-03T21:39:20.784Z,10.84
2022-12-03T21:42:34.189Z,10.35
2022-12-03T21:44:39.827Z,10.60
2022-12-03T21:47:13.991Z,10.35
2022-12-03T21:49:43.325Z,9.68
2022-12-03T21:52:11.761Z,10.32
2022-12-03T21:54:40.144Z,10.61
2022-12-03T21:57:08.614Z,9.77
2022-12-03T21:59:36.921Z,10.06
2022-12-03T22:02:06.695Z,9.94
2022-12-03T22:04:35.179Z,10.06
2022-12-03T22:07:03.653Z,10.78
2022-12-03T22:09:32.710Z,10.19
2022-12-03T22:12:01.639Z,10.18
2022-12-03T22:14:30.215Z,10.24
2022-12-03T22:16:58.481Z,10.29
2022-12-03T22:19:28.322Z,10.70
2022-12-03T22:21:56.604Z,10.25
2022-12-03T22:24:24.885Z,9.51
2022-12-03T22:26:54.722Z,9.60
2022-12-03T22:29:23.324Z,10.05
2022-12-03T22:31:51.623Z,10.73
2022-12-03T22:34:20.034Z,10.02
2022-12-03T22:36:49.804Z,9.86
2022-12-03T22:39:18.276Z,10.59
2022-12-03T22:41:47.805Z,10.34
2022-12-03T22:44:16.258Z,9.82
2022-12-03T22:46:45.129Z,10.33
2022-12-03T22:49:14.198Z,10.98
2022-12-03T22:51:46.687Z,10.61
2022-12-03T22:54:20.929Z,10.81
2022-12-03T22:56:52.176Z,10.60
2022-12-03T22:59:20.463Z,10.90
2022-12-03T23:01:48.733Z,9.96
2022-12-03T23:04:20.294Z,9.24
2022-12-03T23:06:49.261Z,9.42
2022-12-03T23:09:18.964Z,9.99
2022-12-03T23:11:47.755Z,10.81
2022-12-03T23:14:16.000Z,9.69
2022-12-03T23:16:44.367Z,9.73
2022-12-03T23:19:12.637Z,9.42
2022-12-03T23:21:41.173Z,9.95
2022-12-03T23:24:09.553Z,10.10
2022-12-03T23:26:40.156Z,9.76
2022-12-03T23:29:08.785Z,10.04
2022-12-03T23:31:37.398Z,10.42
2022-12-03T23:34:06.438Z,10.25
2022-12-03T23:36:35.352Z,10.18
2022-12-03T23:39:03.674Z,10.62
2022-12-03T23:41:31.958Z,10.52
2022-12-03T23:44:01.639Z,9.82
2022-12-03T23:46:30.093Z,9.86
2022-12-03T23:49:00.517Z,10.42
2022-12-03T23:51:29.074Z,9.42
2022-12-03T23:53:57.813Z,9.86
2022-12-03T23:56:29.082Z,10.89
2022-12-03T23:58:58.188Z,9.51
